Time;durP1;ratioP1;P1;durP2;ratioP2;P2;SDS_P1;SDS_P2;PMS_P1;PMS_P2;Temp;Humidity;BMP_temperature;BMP_pressure;BME280_temperature;BME280_humidity;BME280_pressure;Samples;Min_cycle;Max_cycle;Signal;HPM_P1;HPM_P2
2021/03/26 00:01:25;;;;;;;10.13;7.97;;;11.30;99.90;;;;;;5055733;28;20421;-63
2021/03/26 00:03:54;;;;;;;11.33;9.13;;;11.30;99.90;;;;;;5056220;28;20836;-63
2021/03/26 00:06:23;;;;;;;9.80;8.80;;;11.30;99.90;;;;;;5055947;28;20405;-63
2021/03/26 00:08:49;;;;;;;10.03;8.47;;;11.40;99.90;;;;;;5037549;28;20502;-62
2021/03/26 00:11:16;;;;;;;9.77;8.80;;;11.40;99.90;;;;;;5055952;28;20792;-64
2021/03/26 00:13:42;;;;;;;10.43;8.80;;;11.40;99.90;;;;;;5055762;28;20666;-63
2021/03/26 00:16:10;;;;;;;9.47;8.33;;;11.50;99.90;;;;;;5055220;28;20903;-63
2021/03/26 00:18:36;;;;;;;10.33;9.30;;;11.50;99.90;;;;;;5055729;28;20413;-63
2021/03/26 00:21:03;;;;;;;9.50;8.37;;;11.50;99.90;;;;;;5055775;28;20504;-63
2021/03/26 00:23:28;;;;;;;12.10;9.43;;;11.70;99.90;;;;;;5054101;28;20465;-63
2021/03/26 00:25:55;;;;;;;10.53;8.33;;;11.70;99.90;;;;;;5055459;28;20462;-64
2021/03/26 00:28:21;;;;;;;12.33;8.97;;;11.70;99.90;;;;;;5056082;28;20249;-62
2021/03/26 00:30:46;;;;;;;14.27;9.07;;;11.70;99.90;;;;;;5054982;28;20467;-63
2021/03/26 00:33:12;;;;;;;15.40;9.90;;;11.60;99.90;;;;;;5054107;28;20171;-63
2021/03/26 00:35:39;;;;;;;11.57;9.30;;;11.50;99.90;;;;;;5046553;28;20209;-64
2021/03/26 00:38:05;;;;;;;12.63;9.37;;;11.60;99.90;;;;;;5054973;28;20218;-62
2021/03/26 00:40:31;;;;;;;10.97;8.50;;;11.70;99.90;;;;;;5055109;28;20414;-63
2021/03/26 00:42:56;;;;;;;10.37;7.27;;;11.70;99.90;;;;;;5055242;28;20540;-63
2021/03/26 00:45:28;;;;;;;10.50;8.57;;;11.70;99.90;;;;;;5054989;28;20244;-62
2021/03/26 00:47:54;;;;;;;11.30;8.67;;;11.70;99.90;;;;;;5054893;28;20669;-62
2021/03/26 00:50:23;;;;;;;11.57;9.90;;;11.60;99.90;;;;;;5055003;28;20402;-62
2021/03/26 00:52:49;;;;;;;10.70;9.20;;;11.60;99.90;;;;;;5054680;28;20924;-62
2021/03/26 00:55:16;;;;;;;11.97;8.70;;;11.50;99.90;;;;;;5054668;28;20530;-62
2021/03/26 00:57:42;;;;;;;10.10;9.10;;;11.30;99.90;;;;;;5054932;28;20417;-62
2021/03/26 01:00:12;;;;;;;10.03;8.90;;;11.20;99.90;;;;;;5054396;28;20421;-62
2021/03/26 01:02:38;;;;;;;13.20;9.57;;;11.10;99.90;;;;;;5054540;28;20423;-61
2021/03/26 01:05:09;;;;;;;11.87;8.60;;;11.00;99.90;;;;;;5054556;28;20428;-61
2021/03/26 01:07:35;;;;;;;11.93;9.23;;;10.90;99.90;;;;;;5054163;28;20241;-61
2021/03/26 01:10:01;;;;;;;10.37;9.20;;;10.80;99.90;;;;;;5054429;28;20432;-62
2021/03/26 01:12:26;;;;;;;9.27;7.83;;;10.60;99.90;;;;;;5054510;28;20181;-62
2021/03/26 01:14:52;;;;;;;10.17;9.17;;;10.40;99.90;;;;;;5054125;28;20920;-62
2021/03/26 01:17:18;;;;;;;11.50;9.13;;;10.40;99.90;;;;;;5054416;28;20171;-62
2021/03/26 01:19:43;;;;;;;10.00;9.03;;;10.40;99.90;;;;;;5055040;28;20170;-62
2021/03/26 01:22:12;;;;;;;10.33;8.90;;;10.40;99.90;;;;;;5054289;28;20163;-60
2021/03/26 01:24:38;;;;;;;12.67;9.40;;;10.40;99.90;;;;;;5053940;28;20209;-62
2021/03/26 01:27:04;;;;;;;10.07;9.03;;;10.30;99.90;;;;;;5054232;28;20483;-62
2021/03/26 01:29:30;;;;;;;11.17;9.50;;;10.30;99.90;;;;;;5053928;28;20569;-62
2021/03/26 01:31:55;;;;;;;11.17;9.27;;;10.30;99.90;;;;;;5054668;28;20414;-62
2021/03/26 01:34:22;;;;;;;13.97;9.23;;;10.20;99.90;;;;;;5054699;28;20228;-62
2021/03/26 01:36:48;;;;;;;14.47;10.47;;;10.20;99.90;;;;;;5054485;28;20174;-61
2021/03/26 01:39:13;;;;;;;12.20;9.60;;;10.10;99.90;;;;;;5054154;28;20410;-61
2021/03/26 01:41:44;;;;;;;12.07;10.40;;;10.10;99.90;;;;;;5054353;28;20591;-61
2021/03/26 01:44:11;;;;;;;11.53;10.30;;;10.20;99.90;;;;;;5057096;28;20246;-61
2021/03/26 01:46:38;;;;;;;11.90;9.90;;;10.20;99.90;;;;;;5055235;28;20506;-61
2021/03/26 01:49:05;;;;;;;12.07;8.57;;;10.00;99.90;;;;;;5055018;28;20933;-61
2021/03/26 01:51:45;;;;;;;13.70;9.50;;;10.20;99.90;;;;;;5054245;28;20876;-62
2021/03/26 01:54:15;;;;;;;13.10;9.63;;;10.10;99.90;;;;;;5033621;28;20433;-61
2021/03/26 01:56:41;;;;;;;11.53;9.27;;;10.10;99.90;;;;;;5033803;28;20427;-61
2021/03/26 01:59:08;;;;;;;13.03;8.90;;;10.10;99.90;;;;;;5033466;28;20416;-62
2021/03/26 02:01:45;;;;;;;12.67;10.27;;;10.00;99.90;;;;;;5034093;28;20406;-62
2021/03/26 02:04:41;;;;;;;14.47;10.37;;;9.90;99.90;;;;;;5034093;28;20541;-62
2021/03/26 02:07:07;;;;;;;9.70;8.70;;;9.90;99.90;;;;;;5033851;28;20397;-62
2021/03/26 02:09:36;;;;;;;12.40;9.27;;;9.90;99.90;;;;;;5037449;28;20443;-62
2021/03/26 02:12:17;;;;;;;9.53;8.63;;;9.70;99.90;;;;;;5053634;28;20547;-62
2021/03/26 02:14:46;;;;;;;10.57;9.20;;;9.80;99.90;;;;;;5053674;28;20428;-62
2021/03/26 02:17:16;;;;;;;10.37;9.30;;;9.80;99.90;;;;;;5052996;28;20419;-61
2021/03/26 02:19:47;;;;;;;9.90;8.90;;;9.80;99.90;;;;;;5052666;28;20422;-62
2021/03/26 02:22:14;;;;;;;10.57;9.57;;;9.80;99.90;;;;;;5053010;28;20436;-62
2021/03/26 02:24:42;;;;;;;11.13;9.67;;;9.80;99.90;;;;;;5088373;22;20488;-64
2021/03/26 02:27:15;;;;;;;11.27;9.37;;;9.70;99.90;;;;;;5052870;28;20829;-64
2021/03/26 02:29:41;;;;;;;11.07;8.70;;;9.70;99.90;;;;;;5053212;28;20496;-64
2021/03/26 02:32:21;;;;;;;9.47;8.40;;;9.70;99.90;;;;;;5034897;28;20492;-65
2021/03/26 02:35:26;;;;;;;9.93;8.80;;;9.80;99.90;;;;;;5014626;28;20286;-64
2021/03/26 02:38:22;;;;;;;10.57;8.40;;;9.80;99.90;;;;;;4972292;28;20521;-64
2021/03/26 02:41:13;;;;;;;11.00;8.80;;;9.80;99.90;;;;;;4967616;28;20431;-64
2021/03/26 02:44:11;;;;;;;10.67;9.50;;;10.00;99.90;;;;;;5023939;28;20445;-64
2021/03/26 02:46:42;;;;;;;9.10;8.10;;;10.00;99.90;;;;;;5032942;28;20397;-64
2021/03/26 02:49:18;;;;;;;10.27;7.70;;;10.00;99.90;;;;;;5015220;28;20504;-64
2021/03/26 02:52:06;;;;;;;10.73;8.67;;;10.00;99.90;;;;;;5033267;28;20801;-64
2021/03/26 02:54:39;;;;;;;10.80;9.17;;;9.90;99.90;;;;;;5032769;28;20428;-64
2021/03/26 02:57:09;;;;;;;9.47;7.73;;;9.80;99.90;;;;;;5032979;28;20387;-64
2021/03/26 03:00:18;;;;;;;11.17;8.70;;;9.80;99.90;;;;;;5032511;28;20778;-64
2021/03/26 03:02:47;;;;;;;9.87;8.40;;;9.70;99.90;;;;;;5019725;28;20418;-64
2021/03/26 03:05:33;;;;;;;8.53;7.73;;;9.50;99.90;;;;;;5052448;28;20419;-64
2021/03/26 03:08:08;;;;;;;9.33;7.37;;;9.30;99.90;;;;;;5051931;28;21020;-64
2021/03/26 03:10:41;;;;;;;12.27;8.63;;;9.30;99.90;;;;;;5052351;28;20388;-64
2021/03/26 03:13:18;;;;;;;9.10;7.33;;;9.40;99.90;;;;;;5052506;28;20415;-64
2021/03/26 03:15:47;;;;;;;10.47;8.43;;;9.30;99.90;;;;;;5051121;28;20434;-64
2021/03/26 03:18:23;;;;;;;10.90;8.23;;;9.30;99.90;;;;;;5052901;28;20410;-64
2021/03/26 03:21:04;;;;;;;8.10;7.30;;;9.30;99.90;;;;;;5051706;28;20858;-63
2021/03/26 03:24:00;;;;;;;12.80;8.10;;;9.30;99.90;;;;;;5052646;28;20401;-63
2021/03/26 03:26:48;;;;;;;9.93;8.40;;;9.20;99.90;;;;;;5051492;28;20487;-64
2021/03/26 03:29:17;;;;;;;8.40;7.60;;;9.20;99.90;;;;;;5052280;28;20458;-64
2021/03/26 03:31:53;;;;;;;12.47;8.30;;;9.00;99.90;;;;;;5052705;28;20466;-64
2021/03/26 03:34:33;;;;;;;9.37;8.43;;;9.00;99.90;;;;;;5051844;28;20945;-64
2021/03/26 03:37:07;;;;;;;10.90;8.77;;;8.90;99.90;;;;;;5052524;28;20477;-64
2021/03/26 03:39:59;;;;;;;10.00;8.50;;;8.90;99.90;;;;;;5052185;28;20386;-64
2021/03/26 03:42:39;;;;;;;12.23;9.23;;;8.90;99.90;;;;;;5052944;28;20858;-64
2021/03/26 03:45:08;;;;;;;19.77;9.83;;;8.80;99.90;;;;;;5071563;28;20818;-64
2021/03/26 03:47:42;;;;;;;10.23;9.23;;;8.80;99.90;;;;;;5074743;28;20483;-64
2021/03/26 03:50:16;;;;;;;10.50;9.40;;;8.80;99.90;;;;;;5061784;28;20774;-64
2021/03/26 03:52:50;;;;;;;13.73;10.37;;;8.70;99.90;;;;;;5055657;28;20392;-64
2021/03/26 03:55:24;;;;;;;10.27;8.97;;;8.60;99.90;;;;;;5055106;28;20413;-64
2021/03/26 03:58:07;;;;;;;12.43;10.10;;;8.50;99.90;;;;;;5055657;28;20476;-64
2021/03/26 04:00:38;;;;;;;11.70;9.10;;;8.40;99.90;;;;;;5055496;28;20382;-64
2021/03/26 04:03:09;;;;;;;14.93;10.97;;;8.50;99.90;;;;;;5055559;28;20387;-64
2021/03/26 04:05:55;;;;;;;14.07;11.40;;;8.60;99.90;;;;;;5055167;28;20508;-64
2021/03/26 04:08:28;;;;;;;19.33;12.10;;;8.60;99.90;;;;;;5055290;28;20461;-63
2021/03/26 04:11:24;;;;;;;11.93;10.63;;;8.70;99.90;;;;;;5055147;28;20493;-64
2021/03/26 04:13:59;;;;;;;11.40;10.20;;;8.80;99.90;;;;;;5035858;28;20436;-64
2021/03/26 04:16:28;;;;;;;13.07;11.33;;;8.80;99.90;;;;;;5055761;28;20891;-64
2021/03/26 04:19:18;;;;;;;11.63;10.30;;;8.80;99.90;;;;;;5055130;28;20444;-64
2021/03/26 04:21:46;;;;;;;12.03;9.23;;;8.80;99.90;;;;;;5055128;28;20386;-64
2021/03/26 04:24:18;;;;;;;12.23;9.97;;;8.80;99.90;;;;;;5054757;28;20456;-65
2021/03/26 04:27:15;;;;;;;11.90;10.40;;;8.90;99.90;;;;;;5055288;28;20467;-64
2021/03/26 04:29:56;;;;;;;15.97;11.40;;;9.00;99.90;;;;;;5055303;28;20399;-64
2021/03/26 04:32:24;;;;;;;15.47;10.77;;;9.10;99.90;;;;;;5054986;28;20377;-64
2021/03/26 04:34:52;;;;;;;10.90;9.10;;;9.20;99.90;;;;;;5054641;28;20493;-64
2021/03/26 04:37:28;;;;;;;12.03;10.77;;;9.20;99.90;;;;;;5055003;28;20403;-64
2021/03/26 04:40:34;;;;;;;13.67;10.57;;;9.20;99.90;;;;;;5055139;28;20744;-64
2021/03/26 04:43:47;;;;;;;12.83;9.13;;;9.20;99.90;;;;;;5034338;28;20412;-64
2021/03/26 04:46:30;;;;;;;11.23;10.13;;;9.20;99.90;;;;;;4994112;28;20403;-64
2021/03/26 04:49:03;;;;;;;12.10;10.10;;;9.30;99.90;;;;;;5054679;28;20441;-64
2021/03/26 04:51:33;;;;;;;12.07;9.70;;;9.40;99.90;;;;;;5054613;28;20409;-64
2021/03/26 04:54:10;;;;;;;12.70;10.03;;;9.30;99.90;;;;;;5054486;28;20495;-64
2021/03/26 04:57:02;;;;;;;15.20;11.30;;;9.30;99.90;;;;;;5054803;28;20482;-64
2021/03/26 04:59:51;;;;;;;13.77;10.37;;;9.20;99.90;;;;;;5035795;28;20519;-64
2021/03/26 05:02:20;;;;;;;12.27;10.97;;;9.20;99.90;;;;;;5054448;28;20383;-64
2021/03/26 05:04:46;;;;;;;14.03;9.70;;;9.20;99.90;;;;;;5054331;28;20433;-64
2021/03/26 05:07:23;;;;;;;13.83;10.60;;;9.20;99.90;;;;;;5054616;28;20402;-64
2021/03/26 05:09:52;;;;;;;13.90;10.27;;;9.10;99.90;;;;;;5054755;28;20875;-63
2021/03/26 05:12:24;;;;;;;12.40;9.70;;;9.10;99.90;;;;;;5054279;28;20386;-64
2021/03/26 05:14:55;;;;;;;14.27;10.53;;;9.10;99.90;;;;;;5054508;28;20504;-64
2021/03/26 05:17:30;;;;;;;15.20;11.60;;;9.10;99.90;;;;;;5054150;28;20449;-64
2021/03/26 05:20:18;;;;;;;13.00;11.40;;;9.20;99.90;;;;;;5054056;28;20785;-64
2021/03/26 05:23:10;;;;;;;12.60;10.40;;;9.10;99.90;;;;;;5053905;28;20379;-64
2021/03/26 05:25:39;;;;;;;12.57;10.03;;;9.20;99.90;;;;;;5053568;28;20444;-63
2021/03/26 05:28:10;;;;;;;11.90;9.93;;;9.20;99.90;;;;;;5035976;28;20452;-64
2021/03/26 05:30:41;;;;;;;15.77;11.33;;;9.20;99.90;;;;;;5054137;28;20858;-64
2021/03/26 05:33:35;;;;;;;13.03;11.73;;;9.10;99.90;;;;;;5052942;28;20426;-65
2021/03/26 05:36:10;;;;;;;12.90;10.47;;;9.00;99.90;;;;;;5054042;28;20391;-65
2021/03/26 05:38:50;;;;;;;11.13;9.90;;;8.90;99.90;;;;;;5056445;28;20765;-65
2021/03/26 05:41:44;;;;;;;12.40;10.50;;;8.90;99.90;;;;;;5053961;28;20444;-64
2021/03/26 05:44:10;;;;;;;14.07;12.57;;;9.00;99.90;;;;;;5031880;28;20466;-64
2021/03/26 05:46:39;;;;;;;11.90;10.50;;;9.00;99.90;;;;;;5052604;28;20918;-65
2021/03/26 05:49:28;;;;;;;13.17;11.77;;;9.10;99.90;;;;;;5053546;28;20190;-64
2021/03/26 05:52:29;;;;;;;13.53;11.80;;;9.10;99.90;;;;;;5053581;28;20471;-64
2021/03/26 05:55:09;;;;;;;13.57;12.03;;;9.00;99.90;;;;;;5011760;28;20435;-65
2021/03/26 05:58:14;;;;;;;11.57;10.37;;;9.00;99.90;;;;;;5049334;28;20406;-65
2021/03/26 06:00:57;;;;;;;14.57;11.60;;;9.20;99.90;;;;;;5054065;28;20405;-64
2021/03/26 06:03:44;;;;;;;13.90;11.67;;;9.40;99.90;;;;;;5053213;28;20395;-65
2021/03/26 06:06:28;;;;;;;18.97;12.30;;;9.50;99.90;;;;;;5053790;28;20848;-64
2021/03/26 06:09:18;;;;;;;15.80;11.97;;;9.60;99.90;;;;;;5053349;28;20504;-64
2021/03/26 06:12:03;;;;;;;14.30;11.67;;;9.60;99.90;;;;;;5052888;28;20400;-64
2021/03/26 06:14:37;;;;;;;14.60;12.10;;;9.70;99.90;;;;;;5053326;28;20428;-65
2021/03/26 06:17:40;;;;;;;16.07;11.87;;;9.70;99.90;;;;;;5052890;28;20412;-65
2021/03/26 06:20:21;;;;;;;13.63;12.07;;;9.80;99.90;;;;;;5050969;28;20434;-63
2021/03/26 06:23:23;;;;;;;13.97;12.37;;;9.80;99.90;;;;;;5053881;28;20398;-63
2021/03/26 06:25:57;;;;;;;14.30;12.30;;;9.90;99.90;;;;;;5052792;28;20527;-63
2021/03/26 06:28:36;;;;;;;15.80;13.10;;;10.20;99.90;;;;;;5053342;28;20443;-63
2021/03/26 06:31:32;;;;;;;14.03;12.60;;;10.30;99.90;;;;;;5052347;28;20416;-63
2021/03/26 06:34:21;;;;;;;15.70;13.93;;;10.60;99.90;;;;;;5052897;28;20425;-63
2021/03/26 06:37:16;;;;;;;16.80;13.23;;;10.80;99.90;;;;;;5052896;28;20883;-63
2021/03/26 06:39:58;;;;;;;19.60;13.93;;;11.00;99.90;;;;;;5052710;28;20417;-63
2021/03/26 06:42:46;;;;;;;18.97;12.93;;;11.00;99.90;;;;;;5052999;28;20380;-63
2021/03/26 06:45:33;;;;;;;15.43;13.67;;;11.20;99.90;;;;;;5052549;28;20416;-63
2021/03/26 06:48:13;;;;;;;17.97;14.30;;;11.30;99.90;;;;;;5052542;28;21010;-63
2021/03/26 06:51:04;;;;;;;18.73;14.93;;;11.40;99.90;;;;;;5052699;28;20392;-63
2021/03/26 06:53:56;;;;;;;14.57;13.03;;;11.40;99.90;;;;;;5053011;28;20854;-63
2021/03/26 06:56:59;;;;;;;15.57;13.07;;;11.50;99.90;;;;;;5052553;28;20386;-63
2021/03/26 06:59:27;;;;;;;15.03;13.50;;;11.60;99.90;;;;;;5052959;28;20397;-63
2021/03/26 07:02:14;;;;;;;14.77;11.50;;;11.70;99.90;;;;;;5052382;28;20406;-63
2021/03/26 07:05:05;;;;;;;19.80;13.00;;;11.70;99.90;;;;;;5052986;28;20441;-63
2021/03/26 07:08:00;;;;;;;16.80;13.80;;;11.90;99.90;;;;;;5053086;28;20744;-63
2021/03/26 07:10:58;;;;;;;19.50;13.77;;;11.80;99.90;;;;;;5052283;28;20382;-63
2021/03/26 07:13:49;;;;;;;16.97;13.03;;;11.80;99.90;;;;;;5016434;28;20503;-63
2021/03/26 07:16:35;;;;;;;17.50;14.80;;;11.80;99.90;;;;;;5051937;28;20442;-63
2021/03/26 07:19:25;;;;;;;15.20;13.43;;;11.70;99.90;;;;;;5052249;28;20432;-64
2021/03/26 07:22:24;;;;;;;18.57;13.23;;;11.90;99.90;;;;;;5053907;28;20446;-64
2021/03/26 07:25:08;;;;;;;17.83;14.57;;;11.90;99.90;;;;;;5055501;28;20970;-64
2021/03/26 07:27:53;;;;;;;19.53;13.27;;;12.10;99.90;;;;;;5056344;28;20389;-64
2021/03/26 07:30:29;;;;;;;20.53;13.50;;;12.10;99.90;;;;;;5055542;28;20393;-64
2021/03/26 07:33:16;;;;;;;17.27;14.03;;;12.30;99.90;;;;;;5055912;28;20442;-64
2021/03/26 07:36:02;;;;;;;17.77;13.20;;;12.30;99.90;;;;;;5052377;28;20519;-64
2021/03/26 07:38:59;;;;;;;16.33;13.77;;;12.40;99.90;;;;;;5044927;28;20468;-65
2021/03/26 07:41:44;;;;;;;15.63;13.80;;;12.10;99.90;;;;;;5035734;28;20415;-65
2021/03/26 07:44:30;;;;;;;19.73;14.40;;;12.30;99.90;;;;;;5051350;28;20419;-66
2021/03/26 07:47:20;;;;;;;16.23;14.53;;;12.50;99.90;;;;;;5055704;28;20941;-62
2021/03/26 07:50:11;;;;;;;15.87;14.17;;;12.60;99.90;;;;;;5054546;28;20393;-63
2021/03/26 07:52:58;;;;;;;16.60;13.93;;;12.70;99.90;;;;;;5045258;28;20465;-63
2021/03/26 07:55:36;;;;;;;16.67;14.87;;;12.80;99.90;;;;;;5034585;28;20429;-62
2021/03/26 07:58:23;;;;;;;16.50;13.60;;;13.00;99.90;;;;;;5052865;28;20443;-63
2021/03/26 08:01:13;;;;;;;15.50;13.70;;;13.00;99.90;;;;;;5054807;28;20934;-63
2021/03/26 08:04:36;;;;;;;21.10;12.83;;;13.00;99.90;;;;;;5055632;28;20397;-63
2021/03/26 08:07:43;;;;;;;21.77;15.00;;;12.90;99.90;;;;;;5013337;28;20521;-63
2021/03/26 08:10:28;;;;;;;21.47;14.87;;;12.60;99.90;;;;;;4996618;28;20427;-64
2021/03/26 08:13:12;;;;;;;17.97;14.70;;;12.60;99.90;;;;;;5049988;28;20416;-64
2021/03/26 08:16:10;;;;;;;20.37;13.73;;;12.50;99.90;;;;;;5055112;28;20488;-64
2021/03/26 08:18:44;;;;;;;16.70;14.60;;;12.80;99.90;;;;;;5055352;28;20940;-63
2021/03/26 08:21:19;;;;;;;16.93;14.70;;;12.80;99.90;;;;;;5053624;28;20503;-63
2021/03/26 08:24:00;;;;;;;19.90;16.53;;;12.40;99.90;;;;;;5036614;28;20425;-64
2021/03/26 08:26:44;;;;;;;17.00;14.47;;;12.60;99.90;;;;;;5081746;23;21059;-61
2021/03/26 08:29:24;;;;;;;18.47;14.20;;;12.90;99.90;;;;;;5055394;28;20432;-62
2021/03/26 08:32:20;;;;;;;23.97;16.30;;;13.10;99.90;;;;;;5055553;28;20393;-62
2021/03/26 08:35:10;;;;;;;23.23;16.57;;;13.20;99.90;;;;;;5054646;28;20798;-63
2021/03/26 08:38:07;;;;;;;22.03;17.33;;;13.10;99.90;;;;;;5055432;28;20390;-61
2021/03/26 08:40:53;;;;;;;18.00;16.00;;;13.30;99.90;;;;;;5054862;28;20959;-62
2021/03/26 08:43:20;;;;;;;22.63;17.23;;;13.20;99.90;;;;;;5055140;28;20439;-62
2021/03/26 08:46:10;;;;;;;23.30;17.20;;;13.30;99.90;;;;;;5054768;28;20422;-62
2021/03/26 08:48:47;;;;;;;21.13;16.73;;;13.40;99.90;;;;;;5054755;28;20434;-61
2021/03/26 08:51:38;;;;;;;22.77;16.70;;;13.40;99.90;;;;;;5055157;28;20457;-60
2021/03/26 08:54:48;;;;;;;20.77;17.20;;;13.30;99.90;;;;;;5054754;28;20851;-64
2021/03/26 08:57:28;;;;;;;18.07;16.37;;;13.50;99.90;;;;;;5053350;28;20457;-62
2021/03/26 08:59:59;;;;;;;23.73;15.80;;;13.40;99.90;;;;;;5054729;28;20927;-62
2021/03/26 09:02:30;;;;;;;23.43;17.70;;;13.70;99.90;;;;;;5054669;28;20379;-63
2021/03/26 09:05:13;;;;;;;29.00;17.40;;;13.90;99.90;;;;;;5054482;28;20419;-61
2021/03/26 09:08:22;;;;;;;21.43;17.53;;;13.90;99.90;;;;;;5054734;28;20748;-62
2021/03/26 09:11:24;;;;;;;17.30;14.40;;;13.80;99.90;;;;;;5054369;28;20529;-62
2021/03/26 09:14:24;;;;;;;19.13;17.10;;;13.70;99.90;;;;;;5054518;28;20450;-62
2021/03/26 09:17:12;;;;;;;20.00;15.50;;;13.80;99.90;;;;;;5054379;28;20485;-62
2021/03/26 09:20:07;;;;;;;16.53;14.33;;;13.80;99.90;;;;;;5054590;28;20797;-61
2021/03/26 09:23:00;;;;;;;20.63;14.50;;;14.00;99.90;;;;;;5054634;28;20435;-61
2021/03/26 09:25:48;;;;;;;21.10;15.60;;;14.20;99.90;;;;;;5052825;28;20515;-62
2021/03/26 09:28:37;;;;;;;17.83;15.07;;;14.20;99.90;;;;;;5054705;28;20478;-62
2021/03/26 09:31:07;;;;;;;15.17;13.63;;;14.40;99.90;;;;;;5053714;28;20408;-62
2021/03/26 09:33:35;;;;;;;16.37;13.27;;;14.50;99.90;;;;;;5053149;28;20464;-62
2021/03/26 09:36:02;;;;;;;16.80;14.80;;;14.70;99.80;;;;;;5053848;28;20433;-63
2021/03/26 09:38:47;;;;;;;17.57;15.20;;;14.80;99.60;;;;;;5071043;28;20496;-61
2021/03/26 09:41:53;;;;;;;18.80;15.17;;;15.00;99.30;;;;;;5073934;28;20746;-62
2021/03/26 09:44:32;;;;;;;18.97;14.67;;;14.90;99.70;;;;;;5070190;28;20416;-62
2021/03/26 09:47:11;;;;;;;17.00;13.07;;;15.20;99.10;;;;;;5073968;28;20408;-62
2021/03/26 09:49:42;;;;;;;17.30;14.50;;;15.20;98.50;;;;;;5073106;28;20452;-63
2021/03/26 09:52:17;;;;;;;18.10;14.30;;;15.40;98.60;;;;;;5073577;28;20403;-59
2021/03/26 09:54:47;;;;;;;17.93;13.90;;;15.50;98.10;;;;;;5068272;28;20416;-62
2021/03/26 09:57:41;;;;;;;19.60;13.30;;;15.40;98.00;;;;;;5053350;28;20856;-62
2021/03/26 10:00:28;;;;;;;13.57;11.20;;;15.40;97.60;;;;;;5054165;28;20390;-63
2021/03/26 10:03:13;;;;;;;12.73;11.43;;;15.60;97.40;;;;;;5053317;28;20486;-63
2021/03/26 10:05:45;;;;;;;13.77;10.23;;;15.80;97.10;;;;;;5053114;28;20849;-62
2021/03/26 10:08:48;;;;;;;14.27;11.90;;;15.90;97.40;;;;;;5053025;28;20451;-62
2021/03/26 10:11:20;;;;;;;14.17;11.30;;;16.10;96.80;;;;;;5053371;28;20433;-63
2021/03/26 10:13:54;;;;;;;11.63;10.50;;;16.30;96.00;;;;;;5053449;28;20388;-61
2021/03/26 10:16:35;;;;;;;13.23;10.77;;;16.10;95.90;;;;;;5053213;28;20428;-62
2021/03/26 10:19:30;;;;;;;13.50;11.50;;;16.20;96.00;;;;;;5052635;28;20452;-58
2021/03/26 10:21:58;;;;;;;12.77;11.33;;;16.50;95.40;;;;;;5053220;28;20406;-63
2021/03/26 10:24:36;;;;;;;13.17;11.40;;;16.60;95.00;;;;;;5052916;28;20784;-63
2021/03/26 10:27:19;;;;;;;11.20;9.93;;;16.80;94.50;;;;;;5053008;28;20447;-63
2021/03/26 10:30:03;;;;;;;12.23;9.63;;;16.80;95.70;;;;;;5052959;28;20506;-63
2021/03/26 10:32:32;;;;;;;11.80;10.03;;;17.20;95.00;;;;;;5053290;28;20912;-62
2021/03/26 10:35:01;;;;;;;13.83;11.90;;;17.50;93.50;;;;;;5052946;28;20949;-62
2021/03/26 10:37:43;;;;;;;11.30;10.03;;;17.70;93.50;;;;;;5053303;28;20405;-63
2021/03/26 10:40:22;;;;;;;13.40;11.00;;;18.00;92.80;;;;;;5053458;28;20791;-63
2021/03/26 10:43:06;;;;;;;13.03;10.87;;;17.80;93.00;;;;;;5053466;28;20436;-63
2021/03/26 10:45:57;;;;;;;12.53;11.10;;;17.60;92.60;;;;;;5052245;28;20524;-62
2021/03/26 10:48:47;;;;;;;12.60;9.40;;;17.90;93.10;;;;;;5033065;28;20885;-62
2021/03/26 10:51:31;;;;;;;11.70;9.53;;;17.90;92.20;;;;;;5033290;28;20383;-62
2021/03/26 10:54:02;;;;;;;11.07;8.20;;;18.00;92.70;;;;;;5032117;28;20392;-61
2021/03/26 10:56:46;;;;;;;9.70;7.37;;;18.20;90.80;;;;;;5052248;28;20436;-64
2021/03/26 10:59:42;;;;;;;7.10;6.50;;;19.10;87.90;;;;;;5058237;28;20848;-65
2021/03/26 11:02:39;;;;;;;7.63;6.83;;;19.40;84.60;;;;;;5058030;28;20451;-63
2021/03/26 11:05:27;;;;;;;10.27;7.47;;;19.40;84.80;;;;;;5039403;28;20436;-63
2021/03/26 11:08:01;;;;;;;7.87;6.90;;;19.60;83.00;;;;;;5057652;28;20524;-62
2021/03/26 11:10:56;;;;;;;10.47;7.13;;;19.40;82.50;;;;;;5058050;28;20450;-65
2021/03/26 11:13:32;;;;;;;9.40;7.20;;;19.90;84.00;;;;;;5015992;28;20421;-63
2021/03/26 11:16:05;;;;;;;6.63;5.47;;;21.00;78.30;;;;;;5040885;28;20456;-62
2021/03/26 11:18:38;;;;;;;6.90;5.07;;;21.80;73.40;;;;;;5047557;28;21314;-58
2021/03/26 11:21:10;;;;;;;8.33;5.80;;;22.60;69.20;;;;;;5055880;28;20498;-63
2021/03/26 11:23:41;;;;;;;7.70;5.90;;;23.40;64.70;;;;;;5056613;28;20385;-62
2021/03/26 11:26:10;;;;;;;8.53;5.37;;;23.00;64.20;;;;;;5056432;28;20468;-62
2021/03/26 11:28:40;;;;;;;6.20;5.60;;;23.70;60.30;;;;;;5056370;28;20479;-63
2021/03/26 11:31:36;;;;;;;5.80;5.30;;;24.30;59.80;;;;;;5056582;28;20433;-63
2021/03/26 11:34:46;;;;;;;6.63;5.17;;;24.80;57.20;;;;;;5056027;28;20777;-64
2021/03/26 11:37:22;;;;;;;8.53;5.20;;;26.00;53.80;;;;;;5024948;28;20560;-63
2021/03/26 11:39:59;;;;;;;6.57;5.03;;;24.00;55.20;;;;;;5056619;28;20885;-63
2021/03/26 11:42:40;;;;;;;6.17;5.00;;;24.60;56.20;;;;;;5056539;28;20393;-63
2021/03/26 11:45:24;;;;;;;7.60;5.90;;;25.60;54.10;;;;;;5056275;28;20811;-63
2021/03/26 11:48:25;;;;;;;6.80;5.20;;;26.80;50.90;;;;;;5058565;28;20463;-62
2021/03/26 11:50:51;;;;;;;6.53;5.20;;;25.80;50.40;;;;;;5038026;28;20436;-62
2021/03/26 11:53:23;;;;;;;7.00;5.60;;;25.90;50.90;;;;;;5055917;28;20405;-62
2021/03/26 11:56:02;;;;;;;5.97;4.70;;;26.30;50.80;;;;;;5055570;28;20199;-62
2021/03/26 11:58:48;;;;;;;8.67;6.13;;;26.70;49.20;;;;;;5055533;28;20816;-62
2021/03/26 12:01:19;;;;;;;7.67;5.77;;;26.40;49.00;;;;;;5056029;28;20390;-62
2021/03/26 12:04:12;;;;;;;7.47;6.70;;;26.20;50.10;;;;;;5055506;28;20393;-62
2021/03/26 12:07:02;;;;;;;6.97;5.83;;;27.10;50.30;;;;;;5056113;28;20440;-62
2021/03/26 12:09:40;;;;;;;7.60;6.23;;;27.40;49.40;;;;;;5055613;28;20469;-62
2021/03/26 12:12:27;;;;;;;7.43;6.20;;;27.70;48.70;;;;;;5037457;28;20496;-62
2021/03/26 12:15:10;;;;;;;8.50;6.60;;;27.70;48.00;;;;;;5055448;28;20421;-63
2021/03/26 12:17:55;;;;;;;8.70;7.20;;;27.70;48.40;;;;;;5044238;28;20429;-62
2021/03/26 12:20:27;;;;;;;7.57;6.80;;;27.30;47.30;;;;;;5035117;28;20528;-62
2021/03/26 12:22:57;;;;;;;8.07;6.23;;;26.90;49.00;;;;;;5035177;28;20444;-63
2021/03/26 12:25:27;;;;;;;6.90;6.10;;;27.70;47.10;;;;;;5044512;28;20453;-63
2021/03/26 12:27:54;;;;;;;9.33;6.77;;;28.50;47.30;;;;;;5055284;28;20453;-62
2021/03/26 12:30:34;;;;;;;8.27;7.47;;;28.50;46.70;;;;;;5055032;28;20409;-63
2021/03/26 12:33:09;;;;;;;8.63;7.10;;;27.50;46.10;;;;;;5055397;28;20397;-62
2021/03/26 12:35:48;;;;;;;7.70;6.47;;;27.40;46.50;;;;;;5054759;28;20423;-62
2021/03/26 12:38:26;;;;;;;7.83;6.90;;;27.80;47.70;;;;;;5055048;28;20393;-62
2021/03/26 12:40:54;;;;;;;7.70;6.67;;;27.80;45.80;;;;;;5056188;28;20492;-62
2021/03/26 12:43:29;;;;;;;8.93;6.40;;;26.40;47.00;;;;;;5055627;28;20420;-63
2021/03/26 12:45:59;;;;;;;6.90;5.70;;;26.40;47.90;;;;;;5054684;28;20416;-63
2021/03/26 12:48:38;;;;;;;7.07;5.90;;;27.50;46.30;;;;;;5054362;28;20459;-63
2021/03/26 12:51:40;;;;;;;7.37;5.90;;;27.50;45.50;;;;;;5054820;28;20386;-62
2021/03/26 12:54:28;;;;;;;7.00;6.27;;;25.40;49.60;;;;;;5003102;28;20851;-63
2021/03/26 12:57:15;;;;;;;8.30;6.63;;;26.00;48.40;;;;;;5054340;28;20472;-63
2021/03/26 12:59:55;;;;;;;7.07;5.83;;;26.60;48.20;;;;;;5054279;28;20409;-63
2021/03/26 13:02:47;;;;;;;6.10;5.50;;;28.20;45.90;;;;;;5054644;28;20437;-63
2021/03/26 13:05:24;;;;;;;7.30;6.00;;;28.90;45.90;;;;;;5053877;28;20526;-63
2021/03/26 13:08:20;;;;;;;4.40;4.00;;;29.80;44.00;;;;;;5054713;28;20385;-64
2021/03/26 13:10:59;;;;;;;7.57;5.43;;;30.00;40.90;;;;;;5054737;28;20745;-64
2021/03/26 13:13:36;;;;;;;5.67;4.63;;;29.90;42.30;;;;;;5054345;28;20397;-64
2021/03/26 13:16:14;;;;;;;7.83;4.83;;;29.60;42.40;;;;;;5054621;28;20433;-63
2021/03/26 13:18:59;;;;;;;5.67;5.17;;;29.70;42.00;;;;;;5053508;28;20510;-63
2021/03/26 13:21:43;;;;;;;6.10;4.90;;;28.60;42.40;;;;;;5054049;28;20424;-63
2021/03/26 13:24:12;;;;;;;5.43;4.93;;;29.00;41.30;;;;;;5053031;28;20452;-63
2021/03/26 13:26:39;;;;;;;7.80;4.50;;;28.70;42.80;;;;;;5053655;28;20467;-63
2021/03/26 13:29:27;;;;;;;4.73;3.90;;;28.80;42.50;;;;;;5052714;28;20507;-62
2021/03/26 13:31:56;;;;;;;5.20;4.80;;;29.00;41.50;;;;;;5053815;28;20407;-63
2021/03/26 13:34:36;;;;;;;7.53;4.90;;;28.80;41.10;;;;;;5053432;28;20413;-64
2021/03/26 13:37:10;;;;;;;7.80;4.70;;;29.00;39.80;;;;;;5053172;28;20508;-63
2021/03/26 13:40:05;;;;;;;6.33;4.97;;;28.20;40.80;;;;;;5053546;28;20491;-63
2021/03/26 13:42:38;;;;;;;6.70;4.80;;;27.90;42.80;;;;;;5052909;28;20397;-63